Time;durP1;ratioP1;P1;durP2;ratioP2;P2;SDS_P1;SDS_P2;PMS_P1;PMS_P2;Temp;Humidity;BMP_temperature;BMP_pressure;BME280_temperature;BME280_humidity;BME280_pressure;Samples;Min_cycle;Max_cycle;Signal;HPM_P1;HPM_P2
2023/09/27 00:03:11;;;;;;;13.18;5.20;;;;;;;19.93;50.95;100498.59;7736551;32;37831;-81
2023/09/27 00:07:28;;;;;;;15.45;5.37;;;;;;;19.96;50.99;100496.03;7736444;32;40078;-81
2023/09/27 00:11:44;;;;;;;12.43;5.50;;;;;;;19.79;51.50;100484.87;7756169;32;40825;-80
2023/09/27 00:16:00;;;;;;;12.63;5.22;;;;;;;19.70;51.69;100493.09;7763084;32;38009;-80
2023/09/27 00:20:17;;;;;;;16.67;5.53;;;;;;;19.64;51.66;100477.75;7763024;32;36733;-80
2023/09/27 00:24:34;;;;;;;13.07;5.37;;;;;;;19.56;52.03;100495.09;7739436;32;39232;-80
2023/09/27 00:28:50;;;;;;;9.68;4.85;;;;;;;19.60;51.88;100496.09;7735942;32;40179;-82
2023/09/27 00:33:07;;;;;;;13.98;5.70;;;;;;;19.73;51.66;100486.09;7739436;32;38746;-81
2023/09/27 00:37:25;;;;;;;14.50;5.90;;;;;;;19.44;52.35;100493.72;7739696;32;36832;-80
2023/09/27 00:41:41;;;;;;;12.85;4.85;;;;;;;19.68;51.67;100479.56;7739584;32;39783;-80
2023/09/27 00:46:02;;;;;;;13.57;4.90;;;;;;;19.68;51.74;100478.75;7738219;32;40779;-80
2023/09/27 00:50:18;;;;;;;14.55;5.50;;;;;;;19.79;51.59;100479.34;7738192;32;38169;-80
2023/09/27 00:54:35;;;;;;;10.50;5.80;;;;;;;19.58;52.24;100473.50;7738279;32;37588;-79
2023/09/27 00:58:52;;;;;;;11.52;5.43;;;;;;;19.61;52.23;100481.13;7739397;32;39448;-81
2023/09/27 01:03:09;;;;;;;11.48;5.32;;;;;;;19.42;52.64;100476.63;7753827;32;39584;-80
2023/09/27 01:07:25;;;;;;;11.10;5.70;;;;;;;19.39;52.71;100485.56;7766582;32;38068;-80
2023/09/27 01:11:46;;;;;;;9.27;4.85;;;;;;;19.30;53.00;100482.72;7738835;32;37718;-79
2023/09/27 01:16:02;;;;;;;14.18;5.47;;;;;;;19.19;53.42;100488.81;7739267;32;39400;-80
2023/09/27 01:20:19;;;;;;;12.02;5.32;;;;;;;19.07;53.63;100487.41;7739077;32;40569;-81
2023/09/27 01:24:37;;;;;;;11.23;5.20;;;;;;;19.36;52.84;100490.91;7738828;32;38773;-81
2023/09/27 01:28:53;;;;;;;9.80;5.50;;;;;;;19.30;52.90;100490.22;7739066;32;37119;-80
2023/09/27 01:33:10;;;;;;;13.45;5.12;;;;;;;19.51;52.40;100490.53;7739049;32;39194;-79
2023/09/27 01:37:27;;;;;;;10.05;5.05;;;;;;;19.30;52.83;100485.50;7738868;32;39637;-80
2023/09/27 01:41:43;;;;;;;12.68;5.43;;;;;;;19.46;52.41;100488.69;7738271;32;38235;-80
2023/09/27 01:45:59;;;;;;;8.98;5.70;;;;;;;19.54;52.16;100483.53;7738754;32;37822;-80
2023/09/27 01:50:19;;;;;;;12.27;5.30;;;;;;;19.18;53.24;100487.16;7738721;32;39982;-81
2023/09/27 01:54:35;;;;;;;13.55;5.12;;;;;;;19.27;52.94;100480.59;7738747;32;40090;-80
2023/09/27 01:58:52;;;;;;;8.95;5.47;;;;;;;19.12;53.29;100484.53;7740146;32;38731;-81
2023/09/27 02:03:08;;;;;;;15.32;5.30;;;;;;;19.28;52.83;100475.88;7738664;32;37677;-80
2023/09/27 02:07:25;;;;;;;17.98;5.53;;;;;;;19.24;53.02;100480.41;7738629;32;38906;-80
2023/09/27 02:11:41;;;;;;;12.13;5.40;;;;;;;19.37;54.77;100486.97;7765442;32;40634;-80
2023/09/27 02:15:57;;;;;;;12.32;5.65;;;;;;;19.06;53.82;100493.28;7765507;32;38859;-80
2023/09/27 02:20:17;;;;;;;20.65;5.60;;;;;;;19.01;53.66;100490.63;7765472;32;37129;-80
2023/09/27 02:24:34;;;;;;;10.18;5.78;;;;;;;18.92;53.63;100496.03;7765203;32;39329;-81
2023/09/27 02:28:50;;;;;;;10.95;5.45;;;;;;;18.98;53.63;100483.75;7765202;32;40750;-81
2023/09/27 02:33:07;;;;;;;12.02;5.50;;;;;;;19.02;53.43;100479.22;7765189;32;38013;-81
2023/09/27 02:37:24;;;;;;;11.95;6.40;;;;;;;18.99;53.37;100485.41;7765214;32;37170;-80
2023/09/27 02:41:40;;;;;;;10.15;5.22;;;;;;;19.04;53.26;100479.75;7765173;32;40227;-80
2023/09/27 02:45:56;;;;;;;14.00;5.85;;;;;;;19.13;53.02;100480.63;7765033;32;40118;-80
2023/09/27 02:50:13;;;;;;;12.50;5.40;;;;;;;19.09;53.10;100481.56;7748241;32;37975;-80
2023/09/27 02:54:29;;;;;;;14.43;5.40;;;;;;;19.26;52.51;100486.44;7736807;32;37011;-81
2023/09/27 02:58:46;;;;;;;9.55;5.45;;;;;;;19.27;52.50;100480.59;7737970;32;39335;-80
2023/09/27 03:03:03;;;;;;;9.57;4.53;;;;;;;19.21;52.47;100484.59;7737856;32;40086;-80
2023/09/27 03:07:19;;;;;;;12.37;5.60;;;;;;;19.06;52.91;100480.25;7738166;32;38822;-81
2023/09/27 03:11:36;;;;;;;14.40;5.55;;;;;;;19.13;52.68;100479.84;7737667;32;37130;-80
2023/09/27 03:15:56;;;;;;;13.52;5.40;;;;;;;19.16;52.76;100478.38;7737748;32;39310;-79
2023/09/27 03:20:16;;;;;;;18.08;6.10;;;;;;;18.95;53.40;100481.63;7737172;32;39789;-79
2023/09/27 03:24:34;;;;;;;11.35;5.25;;;;;;;18.89;53.52;100482.88;7737314;32;38102;-80
2023/09/27 03:28:51;;;;;;;10.43;5.07;;;;;;;18.97;53.22;100481.31;7737262;32;37284;-80
2023/09/27 03:33:08;;;;;;;12.15;5.68;;;;;;;18.82;53.75;100480.53;7737300;32;39292;-80
2023/09/27 03:37:24;;;;;;;10.52;5.87;;;;;;;18.80;53.61;100479.16;7737161;32;40889;-80
2023/09/27 03:41:40;;;;;;;10.23;5.65;;;;;;;18.80;53.69;100481.94;7735981;32;38035;-80
2023/09/27 03:46:00;;;;;;;14.70;5.45;;;;;;;18.77;53.39;100489.72;7737528;32;37492;-80
2023/09/27 03:50:17;;;;;;;8.57;4.93;;;;;;;18.74;53.48;100486.75;7736824;32;40049;-80
2023/09/27 03:54:33;;;;;;;13.55;5.47;;;;;;;18.85;52.95;100481.84;7741570;32;40102;-80
2023/09/27 03:58:50;;;;;;;14.52;5.37;;;;;;;18.89;52.65;100483.69;7763647;32;38737;-79
2023/09/27 04:03:06;;;;;;;8.30;5.07;;;;;;;18.65;53.46;100492.19;7763786;32;37800;-80
2023/09/27 04:07:23;;;;;;;21.42;6.03;;;;;;;18.69;53.37;100482.16;7766236;32;40013;-77
2023/09/27 04:11:39;;;;;;;9.07;5.25;;;;;;;18.59;53.69;100487.87;7766808;32;39934;-79
2023/09/27 04:15:56;;;;;;;14.27;6.22;;;;;;;18.67;53.37;100478.88;7766790;32;38025;-81
2023/09/27 04:20:17;;;;;;;15.05;5.85;;;;;;;18.70;53.38;100489.31;7766777;32;37822;-80
2023/09/27 04:24:33;;;;;;;11.48;5.57;;;;;;;18.77;53.10;100489.72;7766740;32;39932;-79
2023/09/27 04:28:52;;;;;;;9.57;5.53;;;;;;;18.97;52.74;100495.13;7766701;32;40811;-83
2023/09/27 04:33:09;;;;;;;9.95;5.12;;;;;;;18.76;53.28;100501.91;7765200;32;38463;-79
2023/09/27 04:37:25;;;;;;;19.52;5.68;;;;;;;18.74;53.38;100495.84;7766768;32;36808;-79
2023/09/27 04:41:42;;;;;;;13.57;5.57;;;;;;;18.68;53.57;100497.09;7766244;32;39259;-78
2023/09/27 04:45:59;;;;;;;9.73;5.72;;;;;;;18.72;53.59;100497.28;7766556;32;39636;-78
2023/09/27 04:50:15;;;;;;;9.90;5.20;;;;;;;18.67;53.69;100503.75;7766365;32;38831;-79
2023/09/27 04:54:32;;;;;;;12.80;5.53;;;;;;;18.53;54.01;100500.19;7766407;32;37748;-79
2023/09/27 04:58:48;;;;;;;14.05;5.62;;;;;;;18.49;54.15;100499.16;7765193;32;39211;-79
2023/09/27 05:03:05;;;;;;;13.68;5.82;;;;;;;18.60;53.76;100503.34;7766024;32;39824;-79
2023/09/27 05:07:22;;;;;;;9.85;5.43;;;;;;;18.67;53.61;100503.75;7766453;32;38008;-79
2023/09/27 05:11:38;;;;;;;11.73;5.28;;;;;;;18.71;53.43;100507.53;7766349;32;36689;-79
2023/09/27 05:15:55;;;;;;;12.57;5.25;;;;;;;19.01;52.39;100508.00;7765455;32;38991;-79
2023/09/27 05:20:12;;;;;;;13.60;5.68;;;;;;;18.99;52.25;100517.72;7765953;32;40028;-79
2023/09/27 05:24:29;;;;;;;16.42;6.00;;;;;;;18.93;52.53;100514.25;7764776;32;39644;-80
2023/09/27 05:28:45;;;;;;;10.85;6.05;;;;;;;18.73;53.81;100521.84;7766002;32;37241;-79
2023/09/27 05:33:05;;;;;;;11.15;5.45;;;;;;;18.86;53.61;100517.44;7765960;32;39973;-80
2023/09/27 05:37:22;;;;;;;10.85;5.60;;;;;;;18.79;53.89;100527.25;7765918;32;40762;-80
2023/09/27 05:41:39;;;;;;;15.27;5.57;;;;;;;18.84;53.57;100513.38;7765470;32;38273;-79
2023/09/27 05:45:57;;;;;;;10.65;5.80;;;;;;;18.90;53.33;100514.87;7765840;32;37606;-80
2023/09/27 05:50:13;;;;;;;12.27;5.50;;;;;;;19.11;52.81;100518.03;7765814;32;38324;-80
2023/09/27 05:54:30;;;;;;;18.37;5.95;;;;;;;19.23;52.72;100525.75;7765589;32;39920;-80
2023/09/27 05:58:46;;;;;;;12.00;6.35;;;;;;;18.50;57.46;100531.97;7765565;32;38292;-77
2023/09/27 06:03:04;;;;;;;18.87;5.95;;;;;;;18.62;57.82;100530.66;7764477;32;37534;-79
2023/09/27 06:07:20;;;;;;;10.93;5.70;;;;;;;18.46;57.95;100536.47;7765574;32;39303;-79
2023/09/27 06:11:37;;;;;;;9.25;5.60;;;;;;;18.57;57.88;100546.22;7765575;32;39701;-79
2023/09/27 06:15:54;;;;;;;18.15;5.90;;;;;;;18.64;57.49;100540.25;7764212;32;37990;-80
2023/09/27 06:20:19;;;;;;;11.18;6.10;;;;;;;19.05;56.07;100550.47;7745948;32;37815;-69
2023/09/27 06:24:36;;;;;;;12.02;5.65;;;;;;;18.79;58.58;100552.94;7738264;32;39339;-69
2023/09/27 06:28:52;;;;;;;13.90;5.78;;;;;;;19.28;56.55;100542.22;7738158;32;40744;-67
2023/09/27 06:33:10;;;;;;;14.82;6.18;;;;;;;19.39;56.53;100551.91;7738376;32;37947;-66
2023/09/27 06:37:27;;;;;;;13.35;6.10;;;;;;;19.62;56.20;100551.91;7738278;32;36980;-73
2023/09/27 06:41:45;;;;;;;9.93;5.65;;;;;;;19.65;56.86;100556.84;7738226;32;39069;-74
2023/09/27 06:46:07;;;;;;;19.45;5.97;;;;;;;19.81;56.69;100565.59;7738126;32;39760;-72
2023/09/27 06:50:24;;;;;;;9.65;5.93;;;;;;;19.41;57.68;100570.94;7746663;32;38731;-69
2023/09/27 06:54:40;;;;;;;12.20;5.45;;;;;;;20.11;55.75;100579.75;7738759;32;37000;-70
2023/09/27 06:58:57;;;;;;;19.42;6.20;;;;;;;20.28;54.66;100574.31;7775110;32;39922;-76
2023/09/27 07:03:13;;;;;;;14.32;5.47;;;;;;;20.32;54.65;100580.06;7758904;32;39651;-79
2023/09/27 07:07:30;;;;;;;13.90;5.47;;;;;;;20.70;53.00;100576.81;7738916;32;38843;-78
2023/09/27 07:11:46;;;;;;;15.32;5.18;;;;;;;21.03;51.37;100580.00;7764649;32;37734;-79
2023/09/27 07:16:17;;;;;;;15.30;5.85;;;;;;;21.23;50.76;100584.12;7763408;32;38991;-77
2023/09/27 07:20:36;;;;;;;9.70;5.53;;;;;;;21.49;52.36;100583.31;7756685;32;40857;-77
2023/09/27 07:24:52;;;;;;;10.65;5.10;;;;;;;21.85;51.30;100571.91;7737678;32;37462;-77
2023/09/27 07:29:09;;;;;;;12.50;5.20;;;;;;;22.26;48.32;100576.03;7758185;32;37619;-76
2023/09/27 07:33:26;;;;;;;12.95;5.15;;;;;;;22.77;47.77;100576.16;7741818;32;39197;-77
2023/09/27 07:37:43;;;;;;;9.13;4.25;;;;;;;22.88;46.81;100580.19;7737000;32;39860;-80
2023/09/27 07:42:01;;;;;;;11.60;4.70;;;;;;;23.16;45.48;100576.13;7736573;32;37360;-80
2023/09/27 07:46:19;;;;;;;11.60;5.28;;;;;;;23.02;45.17;100574.38;7736917;32;37120;-80
2023/09/27 07:50:38;;;;;;;14.27;5.20;;;;;;;23.47;45.47;100580.47;7735758;32;38993;-79
2023/09/27 07:54:58;;;;;;;12.68;4.80;;;;;;;23.67;44.66;100581.62;7736594;32;40030;-80
2023/09/27 07:59:17;;;;;;;10.73;4.68;;;;;;;24.07;44.31;100581.91;7763056;32;37988;-80
2023/09/27 08:03:35;;;;;;;9.50;4.53;;;;;;;24.32;42.62;100582.78;7763365;32;36217;-79
2023/09/27 08:07:52;;;;;;;12.35;4.68;;;;;;;24.49;41.13;100578.97;7763338;32;39966;-80
2023/09/27 08:12:09;;;;;;;9.07;4.45;;;;;;;24.15;41.58;100567.06;7761808;32;39646;-80
2023/09/27 08:16:26;;;;;;;10.27;4.28;;;;;;;24.56;41.65;100572.84;7763077;32;37781;-78
2023/09/27 08:20:42;;;;;;;13.48;4.30;;;;;;;25.00;39.02;100577.81;7746865;32;37922;-81
2023/09/27 08:24:59;;;;;;;8.25;4.10;;;;;;;24.71;39.46;100572.13;7734680;32;39763;-79
2023/09/27 08:29:15;;;;;;;10.15;4.57;;;;;;;25.24;38.38;100576.97;7735876;32;40913;-82
2023/09/27 08:33:32;;;;;;;11.82;4.62;;;;;;;25.38;38.54;100576.59;7735686;32;38082;-81
2023/09/27 08:37:49;;;;;;;8.50;4.40;;;;;;;25.51;37.28;100585.75;7734672;32;36662;-81
2023/09/27 08:42:05;;;;;;;12.27;4.15;;;;;;;25.86;37.97;100580.38;7749453;32;39392;-79
2023/09/27 08:46:23;;;;;;;9.80;4.05;;;;;;;26.22;36.36;100573.78;7760224;32;40892;-82
2023/09/27 08:50:40;;;;;;;18.60;4.85;;;;;;;26.50;37.21;100581.28;7754435;32;38535;-81
2023/09/27 08:54:57;;;;;;;15.65;4.40;;;;;;;26.54;36.45;100573.78;7765483;32;37106;-82
2023/09/27 08:59:14;;;;;;;12.07;5.10;;;;;;;26.69;36.04;100568.59;7765977;32;39430;-80
2023/09/27 09:03:32;;;;;;;8.45;4.97;;;;;;;26.86;35.48;100571.00;7765182;32;41159;-81
2023/09/27 09:07:48;;;;;;;12.27;4.57;;;;;;;27.04;34.17;100571.41;7760304;32;38753;-81
2023/09/27 09:12:08;;;;;;;10.57;4.55;;;;;;;27.29;34.26;100569.19;7766165;32;37091;-81
2023/09/27 09:16:25;;;;;;;11.45;4.82;;;;;;;27.25;33.97;100571.09;7761854;32;38933;-81
2023/09/27 09:20:58;;;;;;;10.70;4.70;;;;;;;27.38;33.66;100568.19;7739166;32;40719;-82
2023/09/27 09:25:15;;;;;;;14.50;4.50;;;;;;;27.71;33.72;100562.84;7739257;32;38031;-83
2023/09/27 09:29:48;;;;;;;16.20;6.87;;;;;;;27.86;33.25;100565.94;7739087;32;36876;-82
2023/09/27 09:34:14;;;;;;;10.73;4.80;;;;;;;27.90;34.26;100566.81;7739066;32;38995;-82
2023/09/27 09:38:30;;;;;;;14.20;5.15;;;;;;;28.19;33.48;100561.78;7755828;32;39868;-83
2023/09/27 09:42:49;;;;;;;12.05;4.97;;;;;;;28.29;33.38;100555.56;7765674;32;38075;-82
2023/09/27 09:47:12;;;;;;;13.75;4.60;;;;;;;28.42;32.69;100567.38;7757706;32;36066;-83
2023/09/27 09:51:30;;;;;;;8.98;4.55;;;;;;;28.69;33.54;100562.63;7764093;32;39767;-81
2023/09/27 09:55:49;;;;;;;8.55;4.43;;;;;;;29.31;31.74;100559.53;7765742;32;39924;-83
2023/09/27 10:00:27;;;;;;;13.90;4.93;;;;;;;29.35;32.38;100560.38;7741492;32;39060;-68
2023/09/27 10:04:45;;;;;;;11.27;4.82;;;;;;;29.54;32.16;100555.81;7764062;32;37875;-80
2023/09/27 10:09:01;;;;;;;10.18;4.93;;;;;;;29.65;32.18;100544.69;7765729;32;38928;-82
2023/09/27 10:13:18;;;;;;;11.60;4.60;;;;;;;29.80;31.97;100545.69;7765470;32;39920;-81
2023/09/27 10:17:35;;;;;;;10.60;4.18;;;;;;;30.30;31.47;100541.38;7765334;32;36929;-81
2023/09/27 10:22:05;;;;;;;9.82;4.62;;;;;;;29.93;30.60;100538.63;7767204;32;36932;-80
2023/09/27 10:26:36;;;;;;;11.25;4.32;;;;;;;30.32;31.49;100547.41;7766098;32;39275;-82
2023/09/27 10:31:05;;;;;;;13.30;4.32;;;;;;;30.48;30.88;100523.88;7765186;32;40819;-81
2023/09/27 10:35:22;;;;;;;12.27;4.43;;;;;;;30.58;30.49;100534.41;7765068;32;38683;-82
2023/09/27 10:39:39;;;;;;;12.15;4.32;;;;;;;31.13;30.22;100525.06;7738990;32;37928;-82
2023/09/27 10:43:56;;;;;;;9.95;4.60;;;;;;;31.22;29.20;100514.28;7738328;32;39123;-82
2023/09/27 10:48:18;;;;;;;11.05;4.72;;;;;;;31.25;28.11;100512.66;7754228;32;40898;-81
2023/09/27 10:52:37;;;;;;;13.73;4.25;;;;;;;31.29;27.92;100505.06;7765091;32;38550;-80
2023/09/27 10:56:55;;;;;;;9.38;4.20;;;;;;;31.47;27.93;100490.22;7762518;32;36157;-80
2023/09/27 11:01:18;;;;;;;9.98;4.60;;;;;;;31.70;28.50;100482.25;7765298;32;38296;-82
2023/09/27 11:05:35;;;;;;;10.50;3.92;;;;;;;31.66;29.80;100484.25;7765092;32;39675;-81
2023/09/27 11:09:52;;;;;;;12.25;3.95;;;;;;;32.36;27.96;100476.25;7762609;32;37957;-82
2023/09/27 11:14:08;;;;;;;11.27;4.32;;;;;;;32.70;27.20;100475.00;7759839;32;37759;-82
2023/09/27 11:18:25;;;;;;;10.27;4.37;;;;;;;32.85;26.82;100470.94;7759252;32;39053;-82
2023/09/27 11:22:41;;;;;;;9.30;4.05;;;;;;;32.84;26.05;100454.41;7758781;32;40867;-82
2023/09/27 11:27:02;;;;;;;11.65;4.37;;;;;;;33.08;27.15;100463.97;7747725;32;38126;-82
2023/09/27 11:31:24;;;;;;;7.43;3.83;;;;;;;32.80;26.49;100457.22;7738106;32;37119;-82
2023/09/27 11:35:48;;;;;;;10.60;4.28;;;;;;;32.80;27.13;100454.41;7737396;32;39376;-82
2023/09/27 11:40:05;;;;;;;8.80;4.18;;;;;;;32.72;26.97;100448.00;7737421;32;39616;-85
2023/09/27 11:44:26;;;;;;;12.40;4.62;;;;;;;32.77;27.55;100443.94;7753669;32;38735;-84
2023/09/27 11:48:43;;;;;;;7.97;4.10;;;;;;;33.14;26.96;100445.44;7761104;32;38865;-83
2023/09/27 11:53:00;;;;;;;8.90;4.00;;;;;;;33.15;26.96;100438.59;7738048;32;39358;-82
2023/09/27 11:57:16;;;;;;;10.45;4.10;;;;;;;33.15;25.96;100435.75;7752648;32;40027;-83
2023/09/27 12:01:33;;;;;;;10.45;4.12;;;;;;;33.15;26.57;100435.75;7763428;32;38092;-83
2023/09/27 12:05:50;;;;;;;8.52;4.10;;;;;;;33.09;27.04;100428.88;7763456;32;37166;-83
2023/09/27 12:10:07;;;;;;;9.52;3.87;;;;;;;33.31;27.99;100426.78;7763375;32;39051;-83
2023/09/27 12:14:24;;;;;;;11.35;4.00;;;;;;;33.88;25.32;100414.28;7763101;32;40762;-84
2023/09/27 12:18:40;;;;;;;10.55;4.47;;;;;;;34.09;24.27;100401.19;7755321;32;38050;-83
2023/09/27 12:22:57;;;;;;;8.32;3.90;;;;;;;34.50;24.56;100406.84;7762578;32;37323;-82
2023/09/27 12:27:13;;;;;;;8.50;3.95;;;;;;;34.35;24.17;100400.53;7764806;32;39320;-82
2023/09/27 12:31:30;;;;;;;13.07;4.05;;;;;;;34.79;22.51;100392.38;7766685;32;39840;-82
2023/09/27 12:35:46;;;;;;;9.48;3.58;;;;;;;35.09;21.67;100394.41;7766410;32;38332;-85
2023/09/27 12:40:04;;;;;;;7.20;3.65;;;;;;;34.91;21.54;100382.50;7763398;32;36872;-83
2023/09/27 12:44:21;;;;;;;8.43;3.72;;;;;;;34.90;20.69;100378.06;7764586;32;39310;-82
2023/09/27 12:48:38;;;;;;;6.00;3.22;;;;;;;34.18;23.57;100376.81;7766503;32;40744;-83
2023/09/27 12:52:55;;;;;;;7.62;3.72;;;;;;;34.56;23.87;100373.22;7766426;32;38053;-83
2023/09/27 12:57:11;;;;;;;8.52;4.05;;;;;;;35.34;23.25;100365.72;7766578;32;36652;-83
2023/09/27 13:01:27;;;;;;;10.52;4.05;;;;;;;35.28;22.04;100358.13;7766443;32;39474;-83
2023/09/27 13:05:44;;;;;;;11.50;4.15;;;;;;;35.47;20.99;100353.78;7766263;32;40759;-84
2023/09/27 13:10:01;;;;;;;6.40;3.37;;;;;;;35.32;22.79;100356.03;7766267;32;38828;-83
2023/09/27 13:14:17;;;;;;;7.85;3.35;;;;;;;35.51;22.56;100352.50;7766314;32;36855;-83
2023/09/27 13:18:34;;;;;;;9.07;3.20;;;;;;;35.51;23.21;100346.03;7766407;32;39241;-83
2023/09/27 13:22:50;;;;;;;10.07;4.28;;;;;;;35.46;22.71;100344.50;7766123;32;40080;-83
2023/09/27 13:27:07;;;;;;;11.63;4.15;;;;;;;35.95;23.07;100344.06;7765972;32;39060;-83
2023/09/27 13:31:23;;;;;;;7.57;3.50;;;;;;;35.77;21.76;100335.87;7765891;32;37864;-83
2023/09/27 13:35:42;;;;;;;7.90;3.47;;;;;;;35.61;21.97;100339.38;7766137;32;39320;-83
2023/09/27 13:39:59;;;;;;;9.90;3.80;;;;;;;35.70;22.42;100324.63;7765426;32;41039;-83
2023/09/27 13:44:16;;;;;;;7.45;3.62;;;;;;;35.46;22.32;100326.66;7765824;32;38079;-83
2023/09/27 13:48:34;;;;;;;8.00;3.85;;;;;;;35.49;23.19;100325.81;7765867;32;37052;-83
2023/09/27 13:52:51;;;;;;;11.68;3.90;;;;;;;35.58;23.07;100319.59;7765710;32;39429;-84
2023/09/27 13:57:07;;;;;;;7.62;3.72;;;;;;;35.90;22.32;100319.03;7765812;32;40522;-84
2023/09/27 14:01:27;;;;;;;9.73;3.90;;;;;;;35.86;22.65;100324.00;7765605;32;37931;-83
2023/09/27 14:05:43;;;;;;;9.07;3.83;;;;;;;36.13;21.78;100312.50;7765607;32;37000;-84
2023/09/27 14:10:00;;;;;;;9.25;3.75;;;;;;;36.36;22.70;100313.72;7765605;32;39223;-83
2023/09/27 14:14:18;;;;;;;6.47;3.20;;;;;;;36.62;21.54;100303.44;7765533;32;39620;-83
2023/09/27 14:18:34;;;;;;;10.25;3.53;;;;;;;36.80;21.26;100298.19;7764588;32;37514;-83
2023/09/27 14:22:52;;;;;;;8.57;3.17;;;;;;;36.43;21.59;100305.06;7765518;32;35630;-83
2023/09/27 14:27:08;;;;;;;9.52;3.20;;;;;;;36.56;20.85;100303.16;7765376;32;39352;-83
2023/09/27 14:31:28;;;;;;;5.82;3.40;;;;;;;36.50;20.91;100296.41;7765461;32;39977;-83
2023/09/27 14:35:44;;;;;;;8.65;3.12;;;;;;;36.43;21.76;100294.50;7765292;32;38063;-82
2023/09/27 14:40:04;;;;;;;8.43;3.10;;;;;;;36.50;20.87;100295.56;7765387;32;36701;-81
2023/09/27 14:44:21;;;;;;;11.45;3.70;;;;;;;36.69;21.06;100280.59;7765229;32;39158;-83
2023/09/27 14:48:38;;;;;;;10.02;3.20;;;;;;;36.64;21.04;100279.03;7765234;32;39981;-83
2023/09/27 14:52:55;;;;;;;8.30;3.15;;;;;;;36.36;20.97;100279.66;7764806;32;38190;-82
2023/09/27 14:57:11;;;;;;;10.25;3.65;;;;;;;36.32;21.10;100285.41;7765066;32;36631;-83
2023/09/27 15:01:28;;;;;;;12.37;3.67;;;;;;;35.99;21.25;100279.56;7765003;32;40115;-83
2023/09/27 15:05:45;;;;;;;6.18;3.22;;;;;;;35.90;21.67;100276.50;7764754;32;39980;-83
2023/09/27 15:10:01;;;;;;;9.15;3.50;;;;;;;35.58;21.60;100283.53;7764659;32;37816;-83
2023/09/27 15:14:18;;;;;;;8.95;3.60;;;;;;;35.30;22.52;100282.00;7764660;32;36937;-83
2023/09/27 15:18:35;;;;;;;10.55;3.70;;;;;;;34.57;23.41;100281.41;7764547;32;39042;-83
2023/09/27 15:22:51;;;;;;;11.65;3.90;;;;;;;34.52;23.47;100276.22;7764153;32;40641;-83
2023/09/27 15:27:08;;;;;;;7.45;3.42;;;;;;;34.29;24.51;100274.91;7753255;32;353667;-83
2023/09/27 15:31:25;;;;;;;8.93;3.30;;;;;;;34.19;23.92;100270.16;7764371;32;36804;-83
2023/09/27 15:35:53;;;;;;;6.75;3.65;;;;;;;33.98;24.13;100274.00;7764203;32;39321;-83
2023/09/27 15:40:10;;;;;;;5.93;3.45;;;;;;;33.88;24.03;100272.91;7764251;32;40032;-83
2023/09/27 15:44:27;;;;;;;8.93;3.78;;;;;;;33.38;24.79;100270.53;7764048;32;38145;-83
2023/09/27 15:48:43;;;;;;;9.43;4.05;;;;;;;33.02;25.10;100276.44;7764000;32;36757;-82
2023/09/27 15:52:59;;;;;;;9.88;3.67;;;;;;;32.99;24.68;100275.22;7763783;32;39320;-82
2023/09/27 15:57:17;;;;;;;11.27;3.83;;;;;;;32.71;25.12;100276.22;7763568;32;39911;-83
2023/09/27 16:01:34;;;;;;;7.80;3.47;;;;;;;32.21;26.50;100284.91;7764538;32;38021;-82
2023/09/27 16:05:51;;;;;;;7.20;3.30;;;;;;;32.37;26.82;100271.13;7767076;32;37075;-82
2023/09/27 16:10:11;;;;;;;8.27;3.55;;;;;;;31.92;27.74;100276.47;7767081;32;39006;-82
2023/09/27 16:14:30;;;;;;;7.43;3.58;;;;;;;32.60;27.11;100272.62;7766929;32;39897;-83
2023/09/27 16:18:47;;;;;;;9.02;3.35;;;;;;;32.48;26.84;100276.72;7766871;32;38058;-82
2023/09/27 16:23:04;;;;;;;10.77;3.58;;;;;;;32.07;26.48;100278.09;7767000;32;36922;-82
2023/09/27 16:27:20;;;;;;;10.18;4.10;;;;;;;31.47;27.63;100278.94;7766669;32;40095;-82
2023/09/27 16:31:36;;;;;;;8.05;3.58;;;;;;;30.59;28.80;100276.38;7766713;32;40846;-82
2023/09/27 16:35:53;;;;;;;10.60;3.28;;;;;;;29.98;28.67;100276.88;7766626;32;37720;-82
2023/09/27 16:40:10;;;;;;;15.45;3.75;;;;;;;29.34;30.62;100288.44;7766748;32;37253;-82
2023/09/27 16:44:26;;;;;;;12.07;3.50;;;;;;;28.70;31.42;100291.34;7766428;32;40094;-82
2023/09/27 16:48:43;;;;;;;6.03;3.42;;;;;;;28.23;31.78;100299.16;7766558;32;39691;-81
2023/09/27 16:52:59;;;;;;;8.45;3.87;;;;;;;27.90;32.68;100297.84;7766876;32;38872;-81
2023/09/27 16:57:16;;;;;;;11.48;3.70;;;;;;;27.48;33.36;100294.00;7766510;32;37082;-83
2023/09/27 17:01:32;;;;;;;7.65;3.40;;;;;;;26.98;34.33;100299.50;7766263;32;40200;-82
2023/09/27 17:05:49;;;;;;;21.75;4.10;;;;;;;26.55;34.99;100309.81;7766305;32;40933;-81
2023/09/27 17:10:06;;;;;;;11.30;3.83;;;;;;;26.29;35.33;100313.28;7766160;32;37658;-81
2023/09/27 17:14:25;;;;;;;14.65;3.47;;;;;;;25.86;36.07;100310.28;7751781;32;37697;-81
2023/09/27 17:18:42;;;;;;;9.15;3.58;;;;;;;25.57;36.82;100310.78;7764932;32;39410;-81
2023/09/27 17:22:58;;;;;;;8.40;3.42;;;;;;;25.19;37.44;100317.75;7765994;32;40721;-82
2023/09/27 17:27:15;;;;;;;6.55;3.60;;;;;;;24.91;38.39;100307.44;7765646;32;38768;-82
2023/09/27 17:31:31;;;;;;;7.60;3.53;;;;;;;24.61;38.71;100316.19;7767689;32;37911;-82
2023/09/27 17:35:48;;;;;;;9.07;3.67;;;;;;;24.57;38.63;100320.81;7766107;32;39948;-82
2023/09/27 17:40:07;;;;;;;9.10;3.47;;;;;;;24.32;39.19;100323.66;7765818;32;39899;-82
2023/09/27 17:44:24;;;;;;;14.20;4.43;;;;;;;24.28;39.38;100331.09;7765771;32;38085;-82
2023/09/27 17:48:40;;;;;;;18.75;4.62;;;;;;;24.06;39.48;100323.25;7765708;32;37317;-82
2023/09/27 17:52:57;;;;;;;16.62;3.92;;;;;;;23.83;40.35;100320.12;7765645;32;39322;-81
2023/09/27 17:57:15;;;;;;;7.20;3.50;;;;;;;23.77;40.34;100322.31;7765635;32;40704;-82
2023/09/27 18:01:31;;;;;;;13.43;3.72;;;;;;;23.58;40.47;100315.34;7765587;32;38627;-81
2023/09/27 18:05:48;;;;;;;9.80;3.40;;;;;;;23.63;40.35;100323.47;7765562;32;37144;-82
2023/09/27 18:10:05;;;;;;;12.82;3.80;;;;;;;23.27;41.09;100315.06;7765533;32;39441;-82
2023/09/27 18:14:23;;;;;;;8.90;3.72;;;;;;;23.18;40.69;100323.50;7765337;32;40788;-82
2023/09/27 18:18:40;;;;;;;13.18;4.20;;;;;;;23.13;40.72;100316.22;7765434;32;37812;-82
2023/09/27 18:22:56;;;;;;;10.45;4.15;;;;;;;22.98;40.84;100319.63;7765212;32;37231;-81
2023/09/27 18:27:13;;;;;;;10.32;3.87;;;;;;;23.00;40.97;100312.53;7765123;32;39988;-81
2023/09/27 18:31:29;;;;;;;8.52;3.62;;;;;;;22.78;41.50;100316.53;7765288;32;40852;-81
2023/09/27 18:35:47;;;;;;;10.18;3.62;;;;;;;22.57;42.10;100308.22;7765118;32;38251;-82
2023/09/27 18:40:04;;;;;;;9.80;3.95;;;;;;;22.65;41.79;100314.87;7765207;32;37698;-81
2023/09/27 18:44:23;;;;;;;8.93;4.30;;;;;;;22.53;41.29;100320.38;7765105;32;40143;-82
2023/09/27 18:48:40;;;;;;;8.35;3.85;;;;;;;22.48;41.27;100324.16;7765125;32;39843;-82
2023/09/27 18:52:56;;;;;;;7.70;3.95;;;;;;;22.33;42.46;100327.53;7764763;32;38028;-81
2023/09/27 18:57:13;;;;;;;9.30;4.40;;;;;;;22.25;43.15;100327.25;7764976;32;37843;-82
2023/09/27 19:01:29;;;;;;;14.68;4.43;;;;;;;22.11;43.83;100333.06;7764923;32;39118;-82
2023/09/27 19:05:46;;;;;;;23.45;5.90;;;;;;;22.15;43.97;100333.19;7760883;32;40243;-82
2023/09/27 19:10:03;;;;;;;8.38;4.80;;;;;;;21.82;45.16;100328.31;7763500;32;38828;-80
2023/09/27 19:14:19;;;;;;;11.88;5.30;;;;;;;21.69;45.47;100332.94;7749816;32;37977;-81
2023/09/27 19:18:36;;;;;;;11.20;4.90;;;;;;;21.65;45.64;100343.09;7764020;32;39479;-80
2023/09/27 19:22:53;;;;;;;13.32;5.35;;;;;;;21.63;46.07;100342.63;7759042;32;39773;-81
2023/09/27 19:27:09;;;;;;;12.65;4.53;;;;;;;21.50;46.38;100335.31;7737163;32;38830;-80
2023/09/27 19:31:26;;;;;;;10.77;4.43;;;;;;;21.57;46.09;100341.16;7741266;32;38028;-86
2023/09/27 19:35:43;;;;;;;9.93;4.60;;;;;;;21.64;45.88;100330.34;7762115;32;39460;-82
2023/09/27 19:39:59;;;;;;;12.63;4.90;;;;;;;21.49;46.22;100330.91;7737105;32;40591;-83
2023/09/27 19:44:16;;;;;;;10.18;4.35;;;;;;;21.36;46.10;100336.31;7736615;32;38035;-81
2023/09/27 19:48:42;;;;;;;6.25;3.80;;;;;;;21.00;46.23;100336.72;7736980;32;37152;-85